sensor_id;sensor_type;location;lat;lon;timestamp;pressure;altitude;pressure_sealevel;temperature;humidity
78383;BME280;67668;52.294;4.692;2023-03-01T00:01:59;103358.00;;;4.10;67.36
78383;BME280;67668;52.294;4.692;2023-03-01T00:04:25;103354.53;;;4.10;67.08
78383;BME280;67668;52.294;4.692;2023-03-01T00:06:50;103349.38;;;4.07;67.10
78383;BME280;67668;52.294;4.692;2023-03-01T00:09:16;103349.38;;;4.07;67.54
78383;BME280;67668;52.294;4.692;2023-03-01T00:11:42;103339.84;;;4.03;67.11
78383;BME280;67668;52.294;4.692;2023-03-01T00:14:07;103348.59;;;4.03;67.97
78383;BME280;67668;52.294;4.692;2023-03-01T00:16:39;103346.84;;;4.02;68.14
78383;BME280;67668;52.294;4.692;2023-03-01T00:19:06;103345.13;;;4.01;68.04
78383;BME280;67668;52.294;4.692;2023-03-01T00:21:31;103346.94;;;3.99;67.70
78383;BME280;67668;52.294;4.692;2023-03-01T00:23:57;103340.81;;;3.99;68.28
78383;BME280;67668;52.294;4.692;2023-03-01T00:26:24;103341.78;;;3.96;67.79
78383;BME280;67668;52.294;4.692;2023-03-01T00:28:50;103333.03;;;3.97;67.74
78383;BME280;67668;52.294;4.692;2023-03-01T00:31:19;103330.47;;;3.94;68.10
78383;BME280;67668;52.294;4.692;2023-03-01T00:33:45;103329.63;;;3.94;67.82
78383;BME280;67668;52.294;4.692;2023-03-01T00:36:12;103333.13;;;3.93;68.49
78383;BME280;67668;52.294;4.692;2023-03-01T00:38:41;103325.28;;;3.91;68.31
78383;BME280;67668;52.294;4.692;2023-03-01T00:41:09;103334.06;;;3.90;68.73
78383;BME280;67668;52.294;4.692;2023-03-01T00:43:35;103327.09;;;3.89;68.08
78383;BME280;67668;52.294;4.692;2023-03-01T00:46:08;103329.78;;;3.88;68.29
78383;BME280;67668;52.294;4.692;2023-03-01T00:48:34;103330.66;;;3.87;68.58
78383;BME280;67668;52.294;4.692;2023-03-01T00:51:42;103328.94;;;3.86;68.71
78383;BME280;67668;52.294;4.692;2023-03-01T00:53:53;103323.75;;;3.84;68.50
78383;BME280;67668;52.294;4.692;2023-03-01T00:56:19;103323.78;;;3.83;68.22
78383;BME280;67668;52.294;4.692;2023-03-01T00:58:45;103328.22;;;3.79;68.50
78383;BME280;67668;52.294;4.692;2023-03-01T01:03:48;103318.69;;;3.77;68.68
78383;BME280;67668;52.294;4.692;2023-03-01T01:06:20;103315.22;;;3.75;68.47
78383;BME280;67668;52.294;4.692;2023-03-01T01:08:45;103313.53;;;3.74;68.25
78383;BME280;67668;52.294;4.692;2023-03-01T01:11:11;103317.03;;;3.73;68.29
78383;BME280;67668;52.294;4.692;2023-03-01T01:13:37;103315.31;;;3.72;68.78
78383;BME280;67668;52.294;4.692;2023-03-01T01:16:03;103315.34;;;3.70;68.40
78383;BME280;67668;52.294;4.692;2023-03-01T01:18:29;103310.19;;;3.67;68.38
78383;BME280;67668;52.294;4.692;2023-03-01T01:20:55;103313.69;;;3.68;68.77
78383;BME280;67668;52.294;4.692;2023-03-01T01:23:20;103316.38;;;3.64;68.19
78383;BME280;67668;52.294;4.692;2023-03-01T01:25:46;103305.94;;;3.63;68.50
78383;BME280;67668;52.294;4.692;2023-03-01T01:28:11;103301.56;;;3.62;68.13
78383;BME280;67668;52.294;4.692;2023-03-01T01:30:37;103298.09;;;3.61;68.50
78383;BME280;67668;52.294;4.692;2023-03-01T01:33:02;103291.16;;;3.60;68.23
78383;BME280;67668;52.294;4.692;2023-03-01T01:35:27;103293.78;;;3.59;68.65
78383;BME280;67668;52.294;4.692;2023-03-01T01:37:53;103286.81;;;3.58;68.58
78383;BME280;67668;52.294;4.692;2023-03-01T01:40:18;103284.25;;;3.56;67.94
78383;BME280;67668;52.294;4.692;2023-03-01T01:42:44;103276.44;;;3.55;68.17
78383;BME280;67668;52.294;4.692;2023-03-01T01:45:29;103278.25;;;3.53;68.60
78383;BME280;67668;52.294;4.692;2023-03-01T01:48:14;103262.63;;;3.50;68.24
78383;BME280;67668;52.294;4.692;2023-03-01T01:50:41;103271.31;;;3.50;68.45
78383;BME280;67668;52.294;4.692;2023-03-01T01:53:12;103269.66;;;3.48;68.19
78383;BME280;67668;52.294;4.692;2023-03-01T01:55:43;103267.06;;;3.46;69.11
78383;BME280;67668;52.294;4.692;2023-03-01T01:58:13;103268.88;;;3.44;69.19
78383;BME280;67668;52.294;4.692;2023-03-01T02:00:40;103266.28;;;3.43;68.54
78383;BME280;67668;52.294;4.692;2023-03-01T02:03:11;103265.47;;;3.41;68.90
78383;BME280;67668;52.294;4.692;2023-03-01T02:08:27;103266.34;;;3.40;68.76
78383;BME280;67668;52.294;4.692;2023-03-01T02:10:56;103268.16;;;3.38;69.26
78383;BME280;67668;52.294;4.692;2023-03-01T02:13:22;103270.78;;;3.36;68.67
78383;BME280;67668;52.294;4.692;2023-03-01T02:15:48;103269.91;;;3.36;68.87
78383;BME280;67668;52.294;4.692;2023-03-01T02:18:17;103253.44;;;3.32;68.82
78383;BME280;67668;52.294;4.692;2023-03-01T02:23:31;103260.47;;;3.30;68.67
78383;BME280;67668;52.294;4.692;2023-03-01T02:26:05;103263.09;;;3.30;69.64
78383;BME280;67668;52.294;4.692;2023-03-01T02:28:36;103255.22;;;3.30;69.63
78383;BME280;67668;52.294;4.692;2023-03-01T02:31:04;103244.84;;;3.27;69.20
78383;BME280;67668;52.294;4.692;2023-03-01T02:33:51;103237.88;;;3.26;69.27
78383;BME280;67668;52.294;4.692;2023-03-01T02:36:30;103245.72;;;3.26;69.44
78383;BME280;67668;52.294;4.692;2023-03-01T02:38:58;103241.38;;;3.25;69.00
78383;BME280;67668;52.294;4.692;2023-03-01T02:41:26;103240.56;;;3.23;69.32
78383;BME280;67668;52.294;4.692;2023-03-01T02:43:54;103249.31;;;3.22;69.51
78383;BME280;67668;52.294;4.692;2023-03-01T02:46:22;103238.91;;;3.21;69.13
78383;BME280;67668;52.294;4.692;2023-03-01T02:48:51;103243.25;;;3.20;69.29
78383;BME280;67668;52.294;4.692;2023-03-01T02:56:48;103239.84;;;3.17;70.16
78383;BME280;67668;52.294;4.692;2023-03-01T02:59:14;103239.03;;;3.15;69.46
78383;BME280;67668;52.294;4.692;2023-03-01T03:01:41;103232.94;;;3.14;70.24
78383;BME280;67668;52.294;4.692;2023-03-01T03:04:10;103219.88;;;3.12;70.05
78383;BME280;67668;52.294;4.692;2023-03-01T03:06:37;103225.16;;;3.11;69.80
78383;BME280;67668;52.294;4.692;2023-03-01T03:09:04;103218.19;;;3.11;69.84
78383;BME280;67668;52.294;4.692;2023-03-01T03:11:30;103220.84;;;3.08;69.63
78383;BME280;67668;52.294;4.692;2023-03-01T03:13:57;103222.63;;;3.08;70.17
78383;BME280;67668;52.294;4.692;2023-03-01T03:16:23;103213.06;;;3.07;69.55
78383;BME280;67668;52.294;4.692;2023-03-01T03:18:48;103210.44;;;3.07;69.86
78383;BME280;67668;52.294;4.692;2023-03-01T03:21:14;103206.97;;;3.05;69.53
78383;BME280;67668;52.294;4.692;2023-03-01T03:23:40;103204.41;;;3.03;69.69
78383;BME280;67668;52.294;4.692;2023-03-01T03:26:05;103214.88;;;3.02;70.35
78383;BME280;67668;52.294;4.692;2023-03-01T03:28:34;103208.81;;;3.01;70.18
78383;BME280;67668;52.294;4.692;2023-03-01T03:31:00;103209.72;;;3.00;70.35
78383;BME280;67668;52.294;4.692;2023-03-01T03:33:30;103205.38;;;2.99;70.24
78383;BME280;67668;52.294;4.692;2023-03-01T03:35:55;103195.78;;;2.98;70.16
78383;BME280;67668;52.294;4.692;2023-03-01T03:38:21;103198.47;;;2.97;70.40
78383;BME280;67668;52.294;4.692;2023-03-01T03:41:02;103203.69;;;2.97;70.22
78383;BME280;67668;52.294;4.692;2023-03-01T03:43:29;103200.25;;;2.95;70.31
78383;BME280;67668;52.294;4.692;2023-03-01T03:45:55;103202.00;;;2.94;69.87
78383;BME280;67668;52.294;4.692;2023-03-01T03:48:23;103199.41;;;2.93;69.66
78383;BME280;67668;52.294;4.692;2023-03-01T03:50:51;103189.84;;;2.92;70.09
78383;BME280;67668;52.294;4.692;2023-03-01T03:53:17;103197.75;;;2.90;69.85
78383;BME280;67668;52.294;4.692;2023-03-01T03:55:42;103187.28;;;2.90;69.77
78383;BME280;67668;52.294;4.692;2023-03-01T03:58:10;103185.63;;;2.86;70.28
78383;BME280;67668;52.294;4.692;2023-03-01T04:00:40;103189.19;;;2.84;70.15
78383;BME280;67668;52.294;4.692;2023-03-01T04:03:07;103197.91;;;2.83;70.44
78383;BME280;67668;52.294;4.692;2023-03-01T04:05:33;103196.19;;;2.82;70.88
78383;BME280;67668;52.294;4.692;2023-03-01T04:07:59;103197.09;;;2.81;70.44
78383;BME280;67668;52.294;4.692;2023-03-01T04:10:30;103197.97;;;2.80;70.41
78383;BME280;67668;52.294;4.692;2023-03-01T04:12:55;103202.41;;;2.78;70.67
78383;BME280;67668;52.294;4.692;2023-03-01T04:15:22;103198.94;;;2.76;70.19
78383;BME280;67668;52.294;4.692;2023-03-01T04:17:50;103185.00;;;2.75;70.87
78383;BME280;67668;52.294;4.692;2023-03-01T04:20:19;103178.94;;;2.73;70.72
78383;BME280;67668;52.294;4.692;2023-03-01T04:23:07;103187.66;;;2.74;71.25
78383;BME280;67668;52.294;4.692;2023-03-01T04:25:46;103183.31;;;2.73;71.44
78383;BME280;67668;52.294;4.692;2023-03-01T04:28:14;103184.22;;;2.72;71.34
78383;BME280;67668;52.294;4.692;2023-03-01T04:30:40;103176.38;;;2.72;71.16
78383;BME280;67668;52.294;4.692;2023-03-01T04:33:11;103176.38;;;2.72;71.50
78383;BME280;67668;52.294;4.692;2023-03-01T04:35:37;103170.28;;;2.71;71.90
78383;BME280;67668;52.294;4.692;2023-03-01T04:38:04;103179.88;;;2.71;71.54
78383;BME280;67668;52.294;4.692;2023-03-01T04:40:30;103182.44;;;2.72;72.29
78383;BME280;67668;52.294;4.692;2023-03-01T04:42:56;103174.66;;;2.71;72.29
78383;BME280;67668;52.294;4.692;2023-03-01T04:45:21;103172.94;;;2.70;72.23
78383;BME280;67668;52.294;4.692;2023-03-01T04:47:47;103168.56;;;2.70;71.81
78383;BME280;67668;52.294;4.692;2023-03-01T04:50:15;103162.47;;;2.70;71.39
78383;BME280;67668;52.294;4.692;2023-03-01T04:52:42;103155.50;;;2.69;71.60
78383;BME280;67668;52.294;4.692;2023-03-01T04:55:08;103162.53;;;2.68;71.66
78383;BME280;67668;52.294;4.692;2023-03-01T04:57:33;103161.66;;;2.68;71.20
78383;BME280;67668;52.294;4.692;2023-03-01T04:59:59;103155.56;;;2.67;70.96
78383;BME280;67668;52.294;4.692;2023-03-01T05:02:27;103162.53;;;2.68;71.08
78383;BME280;67668;52.294;4.692;2023-03-01T05:04:52;103160.81;;;2.66;71.04
78383;BME280;67668;52.294;4.692;2023-03-01T05:07:22;103163.44;;;2.66;71.22
78383;BME280;67668;52.294;4.692;2023-03-01T05:09:49;103171.28;;;2.66;71.03
78383;BME280;67668;52.294;4.692;2023-03-01T05:12:15;103160.88;;;2.64;71.10
78383;BME280;67668;52.294;4.692;2023-03-01T05:14:41;103161.75;;;2.63;71.19
78383;BME280;67668;52.294;4.692;2023-03-01T05:17:07;103160.88;;;2.63;71.53
78383;BME280;67668;52.294;4.692;2023-03-01T05:19:32;103158.31;;;2.61;71.21
78383;BME280;67668;52.294;4.692;2023-03-01T05:21:58;103148.72;;;2.62;71.22
78383;BME280;67668;52.294;4.692;2023-03-01T05:24:27;103149.63;;;2.60;71.22
78383;BME280;67668;52.294;4.692;2023-03-01T05:26:53;103138.34;;;2.58;71.18
78383;BME280;67668;52.294;4.692;2023-03-01T05:29:19;103134.88;;;2.58;71.19
78383;BME280;67668;52.294;4.692;2023-03-01T05:31:59;103135.75;;;2.57;71.33
78383;BME280;67668;52.294;4.692;2023-03-01T05:34:31;103121.00;;;2.54;71.07
78383;BME280;67668;52.294;4.692;2023-03-01T05:36:57;103122.75;;;2.54;71.16
78383;BME280;67668;52.294;4.692;2023-03-01T05:39:25;103125.38;;;2.54;71.00
78383;BME280;67668;52.294;4.692;2023-03-01T05:41:55;103113.25;;;2.50;70.48
78383;BME280;67668;52.294;4.692;2023-03-01T05:44:21;103117.59;;;2.51;70.89
78383;BME280;67668;52.294;4.692;2023-03-01T05:46:47;103120.22;;;2.49;71.30
78383;BME280;67668;52.294;4.692;2023-03-01T05:49:13;103111.53;;;2.49;70.85
78383;BME280;67668;52.294;4.692;2023-03-01T05:51:41;103102.88;;;2.47;71.23
78383;BME280;67668;52.294;4.692;2023-03-01T05:54:11;103107.25;;;2.46;71.18
78383;BME280;67668;52.294;4.692;2023-03-01T05:56:36;103107.25;;;2.46;70.93
78383;BME280;67668;52.294;4.692;2023-03-01T05:59:03;103105.50;;;2.45;71.00
78383;BME280;67668;52.294;4.692;2023-03-01T06:01:30;103108.19;;;2.42;70.73
78383;BME280;67668;52.294;4.692;2023-03-01T06:03:56;103109.09;;;2.41;69.97
78383;BME280;67668;52.294;4.692;2023-03-01T06:06:22;103104.75;;;2.42;70.50
78383;BME280;67668;52.294;4.692;2023-03-01T06:08:47;103110.88;;;2.39;70.80
78383;BME280;67668;52.294;4.692;2023-03-01T06:11:13;103110.94;;;2.38;70.54
78383;BME280;67668;52.294;4.692;2023-03-01T06:13:38;103105.72;;;2.36;70.67
78383;BME280;67668;52.294;4.692;2023-03-01T06:16:07;103109.25;;;2.35;70.78
78383;BME280;67668;52.294;4.692;2023-03-01T06:18:32;103108.41;;;2.33;69.99
78383;BME280;67668;52.294;4.692;2023-03-01T06:20:58;103111.03;;;2.33;70.35
78383;BME280;67668;52.294;4.692;2023-03-01T06:23:24;103110.19;;;2.31;70.02
78383;BME280;67668;52.294;4.692;2023-03-01T06:25:49;103112.81;;;2.31;70.66
78383;BME280;67668;52.294;4.692;2023-03-01T06:28:15;103106.75;;;2.29;69.85
78383;BME280;67668;52.294;4.692;2023-03-01T06:30:40;103099.81;;;2.28;70.66
78383;BME280;67668;52.294;4.692;2023-03-01T06:33:06;103099.84;;;2.27;70.38
78383;BME280;67668;52.294;4.692;2023-03-01T06:35:31;103105.94;;;2.27;70.39
78383;BME280;67668;52.294;4.692;2023-03-01T06:37:58;103105.13;;;2.25;69.87
78383;BME280;67668;52.294;4.692;2023-03-01T06:40:24;103106.00;;;2.24;69.57
78383;BME280;67668;52.294;4.692;2023-03-01T06:42:50;103106.06;;;2.21;69.49
78383;BME280;67668;52.294;4.692;2023-03-01T06:45:18;103100.91;;;2.18;68.95
78383;BME280;67668;52.294;4.692;2023-03-01T06:47:43;103105.28;;;2.16;68.41
78383;BME280;67668;52.294;4.692;2023-03-01T06:50:09;103111.44;;;2.15;68.11
78383;BME280;67668;52.294;4.692;2023-03-01T06:52:35;103116.66;;;2.14;68.64
78383;BME280;67668;52.294;4.692;2023-03-01T06:55:01;103116.72;;;2.12;67.89
78383;BME280;67668;52.294;4.692;2023-03-01T06:57:27;103114.13;;;2.09;68.29
78383;BME280;67668;52.294;4.692;2023-03-01T06:59:52;103108.09;;;2.07;68.80
78383;BME280;67668;52.294;4.692;2023-03-01T07:02:17;103109.84;;;2.06;68.88
78383;BME280;67668;52.294;4.692;2023-03-01T07:04:43;103121.19;;;2.05;68.84
78383;BME280;67668;52.294;4.692;2023-03-01T07:07:08;103123.84;;;2.04;69.06
78383;BME280;67668;52.294;4.692;2023-03-01T07:09:34;103117.75;;;2.03;69.36
78383;BME280;67668;52.294;4.692;2023-03-01T07:11:59;103123.84;;;2.04;69.91
78383;BME280;67668;52.294;4.692;2023-03-01T07:14:25;103121.19;;;2.05;69.97
78383;BME280;67668;52.294;4.692;2023-03-01T07:16:54;103120.34;;;2.05;69.80
78383;BME280;67668;52.294;4.692;2023-03-01T07:19:20;103123.78;;;2.05;69.79
78383;BME280;67668;52.294;4.692;2023-03-01T07:21:45;103116.81;;;2.06;69.75
78383;BME280;67668;52.294;4.692;2023-03-01T07:24:11;103122.91;;;2.06;69.89
78383;BME280;67668;52.294;4.692;2023-03-01T07:26:36;103125.50;;;2.08;70.17
78383;BME280;67668;52.294;4.692;2023-03-01T07:29:03;103126.31;;;2.10;70.39
78383;BME280;67668;52.294;4.692;2023-03-01T07:31:30;103128.06;;;2.11;70.10
78383;BME280;67668;52.294;4.692;2023-03-01T07:33:55;103130.59;;;2.13;70.22
78383;BME280;67668;52.294;4.692;2023-03-01T07:36:21;103130.59;;;2.13;70.55
78383;BME280;67668;52.294;4.692;2023-03-01T07:38:46;103128.88;;;2.13;71.43
78383;BME280;67668;52.294;4.692;2023-03-01T07:41:12;103137.47;;;2.18;71.54
78383;BME280;67668;52.294;4.692;2023-03-01T07:43:37;103138.34;;;2.19;71.44
78383;BME280;67668;52.294;4.692;2023-03-01T07:46:03;103131.31;;;2.21;71.78
78383;BME280;67668;52.294;4.692;2023-03-01T07:48:30;103139.13;;;2.22;71.55
78383;BME280;67668;52.294;4.692;2023-03-01T07:51:03;103129.53;;;2.23;71.85
78383;BME280;67668;52.294;4.692;2023-03-01T07:53:29;103131.19;;;2.27;71.91
78383;BME280;67668;52.294;4.692;2023-03-01T07:56:10;103126.84;;;2.27;71.55
78383;BME280;67668;52.294;4.692;2023-03-01T07:58:40;103132.84;;;2.31;71.66
78383;BME280;67668;52.294;4.692;2023-03-01T08:01:08;103132.78;;;2.34;71.97
78383;BME280;67668;52.294;4.692;2023-03-01T08:03:34;103124.94;;;2.35;71.42
78383;BME280;67668;52.294;4.692;2023-03-01T08:06:00;103129.22;;;2.38;71.60
78383;BME280;67668;52.294;4.692;2023-03-01T08:08:26;103124.84;;;2.38;71.74
78383;BME280;67668;52.294;4.692;2023-03-01T08:10:52;103128.28;;;2.40;72.19
78383;BME280;67668;52.294;4.692;2023-03-01T08:13:17;103135.16;;;2.44;71.84
78383;BME280;67668;52.294;4.692;2023-03-01T08:15:48;103126.41;;;2.45;72.02
78383;BME280;67668;52.294;4.692;2023-03-01T08:18:14;103134.16;;;2.50;71.81
78383;BME280;67668;52.294;4.692;2023-03-01T08:20:39;103131.53;;;2.51;71.59
78383;BME280;67668;52.294;4.692;2023-03-01T08:23:05;103133.22;;;2.52;72.60
78383;BME280;67668;52.294;4.692;2023-03-01T08:25:30;103134.06;;;2.54;72.84
78383;BME280;67668;52.294;4.692;2023-03-01T08:27:55;103127.03;;;2.58;72.60
78383;BME280;67668;52.294;4.692;2023-03-01T08:30:21;103121.72;;;2.61;71.90
78383;BME280;67668;52.294;4.692;2023-03-01T08:32:49;103119.94;;;2.63;72.05
78383;BME280;67668;52.294;4.692;2023-03-01T08:35:14;103120.78;;;2.65;72.62
78383;BME280;67668;52.294;4.692;2023-03-01T08:37:40;103120.72;;;2.67;72.27
78383;BME280;67668;52.294;4.692;2023-03-01T08:40:06;103109.31;;;2.69;72.65
78383;BME280;67668;52.294;4.692;2023-03-01T08:42:32;103110.97;;;2.75;72.33
78383;BME280;67668;52.294;4.692;2023-03-01T08:44:57;103114.31;;;2.80;73.25
78383;BME280;67668;52.294;4.692;2023-03-01T08:47:23;103106.38;;;2.84;72.27
78383;BME280;67668;52.294;4.692;2023-03-01T08:49:50;103105.41;;;2.88;72.71
78383;BME280;67668;52.294;4.692;2023-03-01T08:52:15;103113.97;;;2.95;73.02
78383;BME280;67668;52.294;4.692;2023-03-01T08:54:40;103116.50;;;2.98;72.58
78383;BME280;67668;52.294;4.692;2023-03-01T08:57:06;103105.94;;;3.01;73.12
78383;BME280;67668;52.294;4.692;2023-03-01T08:59:31;103110.19;;;3.05;73.07
78383;BME280;67668;52.294;4.692;2023-03-01T09:02:06;103113.66;;;3.07;72.84
78383;BME280;67668;52.294;4.692;2023-03-01T09:04:35;103111.81;;;3.10;73.44
78383;BME280;67668;52.294;4.692;2023-03-01T09:07:00;103105.63;;;3.13;72.96
78383;BME280;67668;52.294;4.692;2023-03-01T09:09:26;103110.78;;;3.16;73.59
78383;BME280;67668;52.294;4.692;2023-03-01T09:11:51;103108.97;;;3.20;73.65
78383;BME280;67668;52.294;4.692;2023-03-01T09:14:16;103111.56;;;3.21;73.33
78383;BME280;67668;52.294;4.692;2023-03-01T09:16:42;103112.28;;;3.26;72.89
78383;BME280;67668;52.294;4.692;2023-03-01T09:19:07;103103.44;;;3.30;72.99
78383;BME280;67668;52.294;4.692;2023-03-01T09:21:33;103099.88;;;3.34;72.95
78383;BME280;67668;52.294;4.692;2023-03-01T09:23:58;103103.22;;;3.39;73.36
78383;BME280;67668;52.294;4.692;2023-03-01T09:26:24;103103.03;;;3.45;72.80
78383;BME280;67668;52.294;4.692;2023-03-01T09:28:51;103097.63;;;3.51;73.45
78383;BME280;67668;52.294;4.692;2023-03-01T09:31:19;103109.66;;;3.58;73.65
78383;BME280;67668;52.294;4.692;2023-03-01T09:33:49;103100.84;;;3.62;73.16
78383;BME280;67668;52.294;4.692;2023-03-01T09:36:19;103102.41;;;3.68;72.99
78383;BME280;67668;52.294;4.692;2023-03-01T09:38:46;103093.56;;;3.74;72.79
78383;BME280;67668;52.294;4.692;2023-03-01T09:41:26;103092.56;;;3.78;73.43
78383;BME280;67668;52.294;4.692;2023-03-01T09:44:01;103086.31;;;3.82;72.74
78383;BME280;67668;52.294;4.692;2023-03-01T09:46:32;103078.31;;;3.88;72.79
78383;BME280;67668;52.294;4.692;2023-03-01T09:49:05;103087.69;;;3.95;72.49
78383;BME280;67668;52.294;4.692;2023-03-01T09:51:36;103075.31;;;4.00;73.55
78383;BME280;67668;52.294;4.692;2023-03-01T09:54:03;103086.50;;;4.06;73.46
78383;BME280;67668;52.294;4.692;2023-03-01T09:56:40;103085.34;;;4.15;73.89
78383;BME280;67668;52.294;4.692;2023-03-01T09:59:26;103078.22;;;4.20;74.12
78383;BME280;67668;52.294;4.692;2023-03-01T10:04:47;103070.88;;;4.31;73.46
78383;BME280;67668;52.294;4.692;2023-03-01T10:07:44;103081.09;;;4.40;72.98
78383;BME280;67668;52.294;4.692;2023-03-01T10:10:29;103076.44;;;4.48;73.02
78383;BME280;67668;52.294;4.692;2023-03-01T10:13:00;103075.34;;;4.55;73.05
78383;BME280;67668;52.294;4.692;2023-03-01T10:15:38;103077.75;;;4.63;72.03
78383;BME280;67668;52.294;4.692;2023-03-01T10:18:12;103075.72;;;4.71;72.17
78383;BME280;67668;52.294;4.692;2023-03-01T10:20:56;103075.38;;;4.82;72.95
78383;BME280;67668;52.294;4.692;2023-03-01T10:23:23;103071.50;;;4.93;74.20
78383;BME280;67668;52.294;4.692;2023-03-01T10:26:02;103064.22;;;5.01;73.26
78383;BME280;67668;52.294;4.692;2023-03-01T10:28:37;103057.72;;;5.13;74.17
78383;BME280;67668;52.294;4.692;2023-03-01T10:31:12;103046.66;;;5.28;74.52
78383;BME280;67668;52.294;4.692;2023-03-01T10:33:38;103042.78;;;5.40;73.87
78383;BME280;67668;52.294;4.692;2023-03-01T10:36:08;103042.22;;;5.55;73.85
78383;BME280;67668;52.294;4.692;2023-03-01T10:38:55;103038.06;;;5.72;74.37
78383;BME280;67668;52.294;4.692;2023-03-01T10:41:22;103033.13;;;5.88;74.17
78383;BME280;67668;52.294;4.692;2023-03-01T10:43:57;103039.47;;;6.06;72.95
78383;BME280;67668;52.294;4.692;2023-03-01T10:46:37;103023.88;;;6.23;73.57
78383;BME280;67668;52.294;4.692;2023-03-01T10:49:19;103013.53;;;6.40;71.65
78383;BME280;67668;52.294;4.692;2023-03-01T10:51:47;103014.56;;;6.58;71.81
78383;BME280;67668;52.294;4.692;2023-03-01T10:54:28;103018.09;;;6.79;71.24
78383;BME280;67668;52.294;4.692;2023-03-01T10:56:56;103016.44;;;6.96;71.19
78383;BME280;67668;52.294;4.692;2023-03-01T10:59:27;103015.66;;;7.14;68.97
78383;BME280;67668;52.294;4.692;2023-03-01T11:04:56;103006.28;;;7.48;67.69
78383;BME280;67668;52.294;4.692;2023-03-01T11:07:22;103003.75;;;7.65;66.60
78383;BME280;67668;52.294;4.692;2023-03-01T11:09:47;103005.66;;;7.80;66.51
78383;BME280;67668;52.294;4.692;2023-03-01T11:12:16;103003.44;;;7.90;64.30
78383;BME280;67668;52.294;4.692;2023-03-01T11:14:54;103004.75;;;8.00;63.20
78383;BME280;67668;52.294;4.692;2023-03-01T11:17:27;102998.34;;;8.05;61.07
78383;BME280;67668;52.294;4.692;2023-03-01T11:20:02;102996.25;;;8.12;59.64
78383;BME280;67668;52.294;4.692;2023-03-01T11:22:31;103000.28;;;8.19;60.24
78383;BME280;67668;52.294;4.692;2023-03-01T11:24:58;102995.50;;;8.28;58.88
78383;BME280;67668;52.294;4.692;2023-03-01T11:27:27;102991.31;;;8.42;58.83
78383;BME280;67668;52.294;4.692;2023-03-01T11:32:29;102982.84;;;8.52;55.95
78383;BME280;67668;52.294;4.692;2023-03-01T11:35:02;102972.22;;;8.54;55.07
78383;BME280;67668;52.294;4.692;2023-03-01T11:40:24;102970.91;;;8.62;54.81
78383;BME280;67668;52.294;4.692;2023-03-01T11:43:26;102974.03;;;8.70;54.07
78383;BME280;67668;52.294;4.692;2023-03-01T11:51:44;102970.19;;;9.10;56.51
78383;BME280;67668;52.294;4.692;2023-03-01T11:57:11;102959.53;;;9.45;56.64
78383;BME280;67668;52.294;4.692;2023-03-01T11:59:57;102954.97;;;9.64;55.81
78383;BME280;67668;52.294;4.692;2023-03-01T12:10:54;102934.06;;;10.22;54.11
78383;BME280;67668;52.294;4.692;2023-03-01T12:18:52;102917.34;;;10.51;52.21
78383;BME280;67668;52.294;4.692;2023-03-01T12:24:26;102912.44;;;10.59;48.76
78383;BME280;67668;52.294;4.692;2023-03-01T12:27:26;102905.56;;;10.71;50.14
78383;BME280;67668;52.294;4.692;2023-03-01T12:30:20;102909.47;;;10.79;49.17
78383;BME280;67668;52.294;4.692;2023-03-01T12:33:06;102905.56;;;10.71;45.95
78383;BME280;67668;52.294;4.692;2023-03-01T12:36:10;102907.28;;;10.72;49.42
78383;BME280;67668;52.294;4.692;2023-03-01T12:38:55;102908.03;;;10.74;47.61
78383;BME280;67668;52.294;4.692;2023-03-01T12:41:35;102904.53;;;10.73;47.59
78383;BME280;67668;52.294;4.692;2023-03-01T12:49:39;102898.59;;;10.98;49.18
78383;BME280;67668;52.294;4.692;2023-03-01T12:52:18;102897.34;;;11.04;48.21
78383;BME280;67668;52.294;4.692;2023-03-01T12:54:46;102903.03;;;11.12;47.93
78383;BME280;67668;52.294;4.692;2023-03-01T12:57:47;102902.84;;;11.15;47.43
78383;BME280;67668;52.294;4.692;2023-03-01T13:00:32;102894.06;;;11.14;47.25
78383;BME280;67668;52.294;4.692;2023-03-01T13:05:46;102885.81;;;11.05;47.13
78383;BME280;67668;52.294;4.692;2023-03-01T13:08:29;102890.53;;;11.14;47.31
78383;BME280;67668;52.294;4.692;2023-03-01T13:11:16;102888.28;;;11.22;47.38
78383;BME280;67668;52.294;4.692;2023-03-01T13:13:42;102878.63;;;11.21;47.16
78383;BME280;67668;52.294;4.692;2023-03-01T13:16:41;102878.25;;;11.13;46.28
78383;BME280;67668;52.294;4.692;2023-03-01T13:19:23;102863.22;;;11.13;46.88
78383;BME280;67668;52.294;4.692;2023-03-01T13:21:51;102863.28;;;11.26;47.41
78383;BME280;67668;52.294;4.692;2023-03-01T13:24:35;102871.06;;;11.29;46.32
78383;BME280;67668;52.294;4.692;2023-03-01T13:27:10;102859.13;;;11.22;46.41
78383;BME280;67668;52.294;4.692;2023-03-01T13:29:48;102851.91;;;11.24;47.25
78383;BME280;67668;52.294;4.692;2023-03-01T13:32:34;102852.88;;;11.23;46.56
78383;BME280;67668;52.294;4.692;2023-03-01T13:37:45;102842.44;;;11.34;47.86
78383;BME280;67668;52.294;4.692;2023-03-01T13:42:55;102836.56;;;11.43;47.52
78383;BME280;67668;52.294;4.692;2023-03-01T13:45:41;102846.72;;;11.36;45.46
78383;BME280;67668;52.294;4.692;2023-03-01T13:48:27;102852.84;;;11.37;48.23
78383;BME280;67668;52.294;4.692;2023-03-01T13:50:57;102828.91;;;11.38;47.52
78383;BME280;67668;52.294;4.692;2023-03-01T13:53:26;102830.59;;;11.39;47.33
78383;BME280;67668;52.294;4.692;2023-03-01T13:56:09;102826.50;;;11.48;46.72
78383;BME280;67668;52.294;4.692;2023-03-01T14:01:34;102822.75;;;11.65;48.11
78383;BME280;67668;52.294;4.692;2023-03-01T14:04:01;102818.88;;;11.70;47.25
78383;BME280;67668;52.294;4.692;2023-03-01T14:06:33;102810.91;;;11.70;47.40
78383;BME280;67668;52.294;4.692;2023-03-01T14:09:22;102806.97;;;11.63;47.36
78383;BME280;67668;52.294;4.692;2023-03-01T14:14:34;102798.50;;;11.71;48.18
78383;BME280;67668;52.294;4.692;2023-03-01T14:17:16;102790.06;;;11.78;48.74
78383;BME280;67668;52.294;4.692;2023-03-01T14:19:45;102787.19;;;11.81;49.21
78383;BME280;67668;52.294;4.692;2023-03-01T14:22:20;102782.63;;;11.83;46.93
78383;BME280;67668;52.294;4.692;2023-03-01T14:24:50;102774.66;;;11.83;47.97